createdAt,value
2022-08-25T00:00:20.530Z,79.90
2022-08-25T00:02:51.643Z,80.00
2022-08-25T00:05:29.108Z,80.30
2022-08-25T00:07:58.465Z,80.60
2022-08-25T00:10:26.321Z,80.60
2022-08-25T00:12:54.579Z,80.80
2022-08-25T00:15:23.950Z,81.00
2022-08-25T00:17:51.939Z,81.20
2022-08-25T00:20:20.257Z,81.40
2022-08-25T00:22:49.016Z,81.60
2022-08-25T00:25:17.094Z,81.80
2022-08-25T00:27:45.816Z,82.00
2022-08-25T00:30:16.634Z,82.20
2022-08-25T00:32:48.916Z,82.30
2022-08-25T00:35:23.858Z,82.40
2022-08-25T00:37:51.502Z,82.30
2022-08-25T00:40:19.138Z,82.30
2022-08-25T00:42:46.994Z,82.30
2022-08-25T00:45:14.692Z,82.30
2022-08-25T00:47:42.478Z,82.30
2022-08-25T00:50:11.180Z,82.40
2022-08-25T00:52:44.921Z,82.40
2022-08-25T00:55:21.575Z,82.50
2022-08-25T00:57:55.446Z,82.30
2022-08-25T01:00:28.715Z,82.40
2022-08-25T01:02:57.939Z,82.30
2022-08-25T01:05:27.153Z,82.20
2022-08-25T01:07:58.761Z,82.30
2022-08-25T01:10:31.900Z,82.50
2022-08-25T01:13:26.422Z,82.80
2022-08-25T01:15:56.296Z,83.30
2022-08-25T01:18:25.063Z,83.30
2022-08-25T01:20:54.859Z,83.50
2022-08-25T01:23:24.745Z,83.90
2022-08-25T01:26:09.881Z,84.10
2022-08-25T01:28:38.448Z,84.50
2022-08-25T01:31:23.738Z,84.60
2022-08-25T01:33:52.167Z,84.70
2022-08-25T01:36:21.325Z,84.80
2022-08-25T01:38:49.298Z,85.00
2022-08-25T01:41:25.880Z,85.20
2022-08-25T01:43:53.482Z,85.50
2022-08-25T01:46:21.259Z,85.70
2022-08-25T01:48:49.002Z,85.80
2022-08-25T01:51:19.216Z,86.00
2022-08-25T01:53:47.019Z,86.20
2022-08-25T01:56:16.628Z,86.50
2022-08-25T01:58:49.752Z,86.60
2022-08-25T02:01:21.023Z,86.80
2022-08-25T02:03:51.383Z,87.00
2022-08-25T02:06:28.884Z,87.20
2022-08-25T02:09:01.162Z,87.40
2022-08-25T02:11:29.024Z,87.50
2022-08-25T02:13:56.637Z,87.60
2022-08-25T02:16:28.605Z,87.70
2022-08-25T02:18:57.093Z,87.80
2022-08-25T02:21:25.303Z,87.90
2022-08-25T02:23:53.579Z,88.00
2022-08-25T02:26:21.187Z,88.00
2022-08-25T02:28:50.941Z,88.10
2022-08-25T02:31:21.760Z,88.20
2022-08-25T02:33:50.498Z,88.40
2022-08-25T02:36:19.204Z,88.50
2022-08-25T02:38:47.265Z,88.50
2022-08-25T02:41:20.935Z,88.50
2022-08-25T02:43:49.919Z,88.60
2022-08-25T02:46:19.995Z,88.70
2022-08-25T02:48:47.869Z,88.70
2022-08-25T02:51:15.568Z,88.70
2022-08-25T02:53:46.040Z,88.80
2022-08-25T02:56:15.273Z,88.80
2022-08-25T02:58:43.297Z,88.90
2022-08-25T03:01:12.111Z,88.90
2022-08-25T03:03:40.711Z,88.90
2022-08-25T03:06:11.348Z,89.00
2022-08-25T03:08:39.961Z,89.10
2022-08-25T03:11:07.912Z,89.10
2022-08-25T03:13:35.861Z,89.20
2022-08-25T03:16:05.384Z,89.20
2022-08-25T03:18:40.900Z,89.40
2022-08-25T03:21:09.813Z,89.40
2022-08-25T03:23:37.484Z,89.40
2022-08-25T03:26:23.694Z,89.50
2022-08-25T03:28:51.450Z,89.50
2022-08-25T03:31:19.295Z,89.60
2022-08-25T03:33:46.980Z,89.60
2022-08-25T03:36:14.948Z,89.60
2022-08-25T03:38:43.148Z,89.60
2022-08-25T03:41:20.528Z,89.60
2022-08-25T03:43:48.896Z,89.70
2022-08-25T03:46:19.587Z,89.60
2022-08-25T03:48:48.841Z,89.70
2022-08-25T03:51:33.702Z,89.80
2022-08-25T03:54:02.484Z,90.00
2022-08-25T03:56:30.634Z,90.00
2022-08-25T03:58:58.502Z,90.00
2022-08-25T04:01:27.340Z,90.00
2022-08-25T04:03:55.285Z,90.00
2022-08-25T04:06:23.409Z,90.00
2022-08-25T04:08:52.956Z,90.10
2022-08-25T04:11:23.253Z,90.10
2022-08-25T04:13:52.460Z,90.20
2022-08-25T04:16:23.771Z,90.20
2022-08-25T04:18:53.840Z,90.30
2022-08-25T04:21:22.902Z,90.30
2022-08-25T04:23:52.175Z,90.30
2022-08-25T04:26:37.320Z,90.40
2022-08-25T04:29:07.854Z,90.50
2022-08-25T04:31:36.191Z,90.50
2022-08-25T04:34:14.312Z,90.50
2022-08-25T04:36:53.569Z,90.50
2022-08-25T04:39:21.785Z,90.70
2022-08-25T04:41:50.545Z,90.70
2022-08-25T04:44:18.154Z,90.70
2022-08-25T04:46:46.038Z,90.70
2022-08-25T04:49:13.629Z,90.60
2022-08-25T04:51:41.998Z,90.60
2022-08-25T04:54:13.059Z,90.60
2022-08-25T04:56:41.400Z,90.60
2022-08-25T04:59:12.217Z,90.60
2022-08-25T05:01:41.878Z,90.60
2022-08-25T05:04:12.421Z,90.60
2022-08-25T05:06:55.410Z,90.60
2022-08-25T05:09:23.360Z,90.60
2022-08-25T05:11:54.514Z,90.70
2022-08-25T05:14:26.436Z,90.80
2022-08-25T05:16:58.074Z,90.80
2022-08-25T05:19:26.868Z,90.90
2022-08-25T05:21:54.593Z,90.90
2022-08-25T05:24:26.168Z,90.90
2022-08-25T05:26:53.969Z,90.90
2022-08-25T05:29:21.998Z,90.90
2022-08-25T05:31:50.935Z,90.90
2022-08-25T05:34:19.974Z,90.90
2022-08-25T05:36:48.839Z,90.90
2022-08-25T05:39:16.485Z,90.90
2022-08-25T05:41:44.419Z,90.90
2022-08-25T05:44:15.116Z,90.90
2022-08-25T05:46:45.619Z,90.90
2022-08-25T05:49:13.195Z,90.90
2022-08-25T05:51:41.025Z,91.00
2022-08-25T05:54:08.682Z,91.10
2022-08-25T05:56:36.352Z,91.10
2022-08-25T05:59:08.676Z,91.20
2022-08-25T06:01:55.588Z,91.20
2022-08-25T06:04:23.403Z,91.10
2022-08-25T06:06:53.911Z,91.10
2022-08-25T06:09:22.543Z,91.10
2022-08-25T06:11:54.521Z,91.10
2022-08-25T06:14:24.050Z,91.00
2022-08-25T06:16:52.151Z,91.00
2022-08-25T06:19:20.492Z,91.00
2022-08-25T06:21:48.140Z,90.90
2022-08-25T06:24:16.005Z,91.10
2022-08-25T06:26:44.358Z,91.20
2022-08-25T06:29:14.254Z,91.30
2022-08-25T06:31:43.228Z,91.20
2022-08-25T06:34:11.696Z,91.20
2022-08-25T06:36:39.764Z,91.20
2022-08-25T06:39:08.059Z,91.30
2022-08-25T06:41:39.107Z,91.20
2022-08-25T06:44:07.099Z,91.10
2022-08-25T06:46:36.284Z,91.10
2022-08-25T06:49:06.674Z,91.10
2022-08-25T06:51:36.263Z,91.00
2022-08-25T06:54:06.617Z,91.00
2022-08-25T06:56:34.768Z,90.90
2022-08-25T06:59:04.161Z,90.90
2022-08-25T07:01:33.531Z,90.70
2022-08-25T07:04:04.995Z,90.70
2022-08-25T07:06:36.053Z,90.70
2022-08-25T07:09:08.757Z,90.60
2022-08-25T07:11:36.743Z,90.60
2022-08-25T07:14:06.628Z,90.60
2022-08-25T07:16:36.075Z,90.60
2022-08-25T07:19:05.406Z,90.50
2022-08-25T07:21:35.939Z,90.40
2022-08-25T07:24:09.779Z,90.30
2022-08-25T07:26:39.344Z,90.10
2022-08-25T07:29:14.018Z,90.10
2022-08-25T07:31:42.073Z,90.00
2022-08-25T07:34:28.780Z,90.00
2022-08-25T07:36:57.439Z,89.80
2022-08-25T07:39:26.417Z,89.80
2022-08-25T07:41:54.539Z,89.90
2022-08-25T07:44:23.445Z,90.00
2022-08-25T07:46:51.999Z,90.00
2022-08-25T07:49:23.731Z,89.90
2022-08-25T07:52:05.564Z,89.90
2022-08-25T07:54:38.151Z,89.80
2022-08-25T07:57:09.043Z,89.80
2022-08-25T07:59:41.967Z,89.80
2022-08-25T08:02:18.141Z,89.80
2022-08-25T08:04:53.893Z,89.70
2022-08-25T08:07:42.064Z,89.80
2022-08-25T08:13:02.235Z,89.80
2022-08-25T08:15:30.531Z,89.60
2022-08-25T08:17:59.875Z,89.60
2022-08-25T08:20:29.002Z,89.50
2022-08-25T08:22:57.201Z,89.60
2022-08-25T08:25:27.171Z,89.60
2022-08-25T08:27:55.931Z,89.60
2022-08-25T08:30:26.304Z,89.60
2022-08-25T08:33:11.672Z,89.50
2022-08-25T08:35:43.359Z,89.50
2022-08-25T08:38:17.258Z,89.40
2022-08-25T08:41:23.037Z,89.40
2022-08-25T08:44:00.234Z,89.30
2022-08-25T08:46:41.039Z,89.30
2022-08-25T08:49:23.142Z,89.20
2022-08-25T08:52:01.776Z,89.20
2022-08-25T08:54:36.245Z,89.20
2022-08-25T08:57:19.731Z,89.10
2022-08-25T08:59:55.393Z,89.10
2022-08-25T09:02:39.614Z,89.00
2022-08-25T09:05:23.033Z,88.90
2022-08-25T09:07:56.958Z,88.80
2022-08-25T09:10:29.018Z,88.80
2022-08-25T09:13:15.677Z,88.80
2022-08-25T09:16:20.537Z,88.70
2022-08-25T09:19:51.632Z,88.50
2022-08-25T09:22:35.454Z,88.50
2022-08-25T09:25:53.543Z,88.50
2022-08-25T09:28:28.373Z,88.50
2022-08-25T09:31:12.518Z,88.40
2022-08-25T09:33:41.642Z,88.30
2022-08-25T09:36:13.175Z,88.10
2022-08-25T09:38:41.099Z,87.70
2022-08-25T09:41:08.998Z,87.60
2022-08-25T09:43:42.366Z,87.60
2022-08-25T09:46:20.849Z,87.50
2022-08-25T09:48:57.602Z,87.60
2022-08-25T09:51:29.298Z,87.50
2022-08-25T09:54:15.763Z,87.50
2022-08-25T09:56:50.918Z,87.40
2022-08-25T09:59:34.734Z,87.40
2022-08-25T10:02:26.052Z,87.30
2022-08-25T10:04:55.933Z,87.50
2022-08-25T10:07:39.740Z,87.40
2022-08-25T10:10:22.995Z,87.40
2022-08-25T10:12:51.724Z,87.40
2022-08-25T10:15:34.862Z,87.40
2022-08-25T10:18:32.054Z,87.20
2022-08-25T10:21:09.222Z,87.10
2022-08-25T10:23:44.916Z,87.10
2022-08-25T10:26:34.816Z,87.10
2022-08-25T10:29:09.854Z,87.00
2022-08-25T10:32:11.489Z,87.10
2022-08-25T10:34:54.695Z,87.10
2022-08-25T10:37:50.249Z,87.10
2022-08-25T10:40:28.656Z,87.10
2022-08-25T10:43:07.949Z,86.80
2022-08-25T10:45:49.590Z,86.70
2022-08-25T10:48:40.968Z,86.60
2022-08-25T10:51:25.703Z,86.60
2022-08-25T10:54:02.327Z,86.20
2022-08-25T10:56:41.493Z,85.90
2022-08-25T10:59:35.558Z,85.90
2022-08-25T11:02:20.939Z,85.60
2022-08-25T11:05:07.901Z,85.20
2022-08-25T11:07:45.461Z,84.00
2022-08-25T11:10:22.646Z,83.90
2022-08-25T11:12:56.946Z,83.60
2022-08-25T11:15:41.431Z,83.70
2022-08-25T11:18:17.894Z,83.10
2022-08-25T11:21:08.673Z,82.70
2022-08-25T11:23:41.665Z,82.40
2022-08-25T11:26:12.383Z,82.60
2022-08-25T11:29:11.502Z,82.40
2022-08-25T11:31:47.342Z,81.70
2022-08-25T11:34:21.723Z,81.50
2022-08-25T11:37:01.296Z,81.10
2022-08-25T11:40:07.270Z,80.80
2022-08-25T11:42:58.379Z,80.50
2022-08-25T11:45:48.363Z,80.40
2022-08-25T11:48:29.006Z,80.10
2022-08-25T11:51:04.862Z,79.70
2022-08-25T11:53:37.667Z,79.10
2022-08-25T11:56:36.409Z,78.70
2022-08-25T11:59:08.725Z,78.30
2022-08-25T12:01:46.147Z,78.20
2022-08-25T12:04:37.812Z,77.40
2022-08-25T12:07:21.023Z,76.50
2022-08-25T12:09:54.176Z,75.90
2022-08-25T12:12:32.796Z,75.70
2022-08-25T12:15:31.424Z,75.10
2022-08-25T12:18:08.872Z,74.80
2022-08-25T12:20:55.368Z,74.90
2022-08-25T12:23:44.941Z,74.30
2022-08-25T12:26:24.841Z,73.90
2022-08-25T12:29:02.325Z,73.40
2022-08-25T12:31:59.218Z,72.30
2022-08-25T12:35:00.579Z,72.10
2022-08-25T12:37:28.947Z,71.30
2022-08-25T12:40:05.894Z,70.80
2022-08-25T12:42:38.268Z,69.90
2022-08-25T12:45:21.268Z,70.00
2022-08-25T12:47:50.073Z,69.90
2022-08-25T12:50:33.629Z,69.80
2022-08-25T12:53:38.993Z,68.00
2022-08-25T12:56:27.821Z,66.40
2022-08-25T12:59:16.386Z,66.00
2022-08-25T13:02:11.070Z,65.80
2022-08-25T13:04:58.785Z,65.50
2022-08-25T13:07:57.005Z,65.10
2022-08-25T13:11:12.348Z,62.00
2022-08-25T13:13:57.679Z,61.50
2022-08-25T13:16:29.913Z,61.00
2022-08-25T13:18:59.683Z,61.70
2022-08-25T13:21:39.061Z,59.50
2022-08-25T13:24:17.608Z,55.60
2022-08-25T13:26:48.250Z,55.00
2022-08-25T13:29:21.284Z,53.40
2022-08-25T13:31:57.084Z,52.20
2022-08-25T13:34:34.694Z,51.20
2022-08-25T13:37:29.916Z,50.60
2022-08-25T13:40:19.647Z,51.80
2022-08-25T13:42:55.522Z,51.50
2022-08-25T13:45:31.958Z,49.60
2022-08-25T13:47:59.879Z,47.50
2022-08-25T13:50:28.451Z,45.10
2022-08-25T13:53:01.097Z,44.40
2022-08-25T13:55:51.502Z,43.10
2022-08-25T13:58:38.683Z,44.20
2022-08-25T14:01:47.153Z,44.20
2022-08-25T14:04:51.664Z,45.10
2022-08-25T14:07:23.187Z,43.80
2022-08-25T14:10:01.197Z,43.60
2022-08-25T14:12:46.588Z,42.60
2022-08-25T14:15:17.609Z,41.60
2022-08-25T14:18:05.974Z,40.10
2022-08-25T14:20:36.121Z,38.60
2022-08-25T14:23:18.754Z,37.70
2022-08-25T14:25:47.757Z,35.90
2022-08-25T14:28:18.920Z,35.50
2022-08-25T14:30:54.310Z,35.10
2022-08-25T14:33:28.668Z,35.60
2022-08-25T14:35:59.889Z,35.60
2022-08-25T14:38:27.470Z,37.10
2022-08-25T14:40:55.330Z,38.60
2022-08-25T14:43:32.101Z,39.80
2022-08-25T14:46:03.196Z,40.80
2022-08-25T14:48:39.372Z,41.50
2022-08-25T14:51:09.020Z,41.30
2022-08-25T14:53:36.673Z,40.90
2022-08-25T14:56:06.891Z,40.80
2022-08-25T14:58:51.030Z,40.40
2022-08-25T15:01:28.389Z,39.90
2022-08-25T15:04:20.523Z,39.30
2022-08-25T15:06:54.770Z,36.90
2022-08-25T15:09:24.211Z,36.40
2022-08-25T15:11:55.166Z,35.40
2022-08-25T15:14:29.057Z,34.90
2022-08-25T15:17:02.993Z,33.90
2022-08-25T15:19:31.064Z,32.90
2022-08-25T15:21:59.849Z,33.10
2022-08-25T15:24:28.401Z,32.90
2022-08-25T15:27:01.270Z,32.40
2022-08-25T15:29:30.886Z,32.00
2022-08-25T15:32:00.317Z,31.70
2022-08-25T15:34:29.310Z,31.70
2022-08-25T15:36:58.478Z,31.60
2022-08-25T15:39:28.485Z,31.40
2022-08-25T15:41:57.150Z,31.30
2022-08-25T15:44:29.391Z,30.60
2022-08-25T15:46:59.424Z,29.50
2022-08-25T15:49:29.719Z,29.40
2022-08-25T15:51:59.305Z,29.10
2022-08-25T15:54:30.770Z,28.70
2022-08-25T15:56:59.933Z,28.70
2022-08-25T15:59:28.451Z,28.30
2022-08-25T16:01:56.740Z,28.20
2022-08-25T16:04:27.664Z,28.40
2022-08-25T16:06:56.147Z,29.30
2022-08-25T16:09:24.069Z,29.70
2022-08-25T16:11:56.769Z,29.50
2022-08-25T16:14:27.836Z,29.80
2022-08-25T16:16:58.438Z,29.40
2022-08-25T16:19:30.350Z,29.50
2022-08-25T16:21:59.959Z,30.40
2022-08-25T16:24:29.807Z,31.10
2022-08-25T16:27:11.665Z,32.10
2022-08-25T16:29:42.317Z,32.30
2022-08-25T16:32:13.544Z,32.20
2022-08-25T16:34:42.039Z,31.50
2022-08-25T16:37:09.888Z,30.90
2022-08-25T16:39:40.054Z,30.30
2022-08-25T16:42:09.024Z,29.70
2022-08-25T16:44:37.514Z,29.50
2022-08-25T16:47:08.778Z,29.50
2022-08-25T16:49:37.254Z,29.40
2022-08-25T16:52:28.289Z,29.90
2022-08-25T16:55:16.178Z,29.80
2022-08-25T16:57:53.571Z,30.00
2022-08-25T17:00:24.938Z,30.30
2022-08-25T17:03:00.785Z,30.50
2022-08-25T17:05:29.486Z,30.70
2022-08-25T17:08:18.346Z,30.70
2022-08-25T17:10:46.584Z,30.60
2022-08-25T17:13:14.498Z,30.70
2022-08-25T17:15:45.018Z,30.80
2022-08-25T17:18:13.797Z,31.50
2022-08-25T17:20:44.808Z,31.20
2022-08-25T17:23:13.084Z,31.00
2022-08-25T17:25:42.801Z,31.00
2022-08-25T17:28:12.975Z,31.20
2022-08-25T17:30:40.984Z,31.10
2022-08-25T17:33:08.709Z,31.10
2022-08-25T17:35:41.420Z,31.10
2022-08-25T17:38:09.713Z,31.50
2022-08-25T17:40:38.015Z,32.00
2022-08-25T17:43:09.071Z,32.50
2022-08-25T17:45:39.111Z,33.30
2022-08-25T17:48:09.198Z,34.10
2022-08-25T17:50:39.206Z,34.20
2022-08-25T17:53:09.354Z,34.30
2022-08-25T17:55:38.696Z,34.50
2022-08-25T17:58:11.927Z,34.60
2022-08-25T18:00:43.914Z,34.70
2022-08-25T18:03:12.261Z,34.80
2022-08-25T18:05:40.159Z,34.80
2022-08-25T18:08:10.569Z,34.90
2022-08-25T18:10:39.624Z,35.20
2022-08-25T18:13:07.602Z,35.60
2022-08-25T18:15:35.661Z,36.00
2022-08-25T18:18:04.689Z,36.00
2022-08-25T18:20:32.957Z,36.30
2022-08-25T18:23:19.873Z,36.60
2022-08-25T18:26:06.765Z,36.90
2022-08-25T18:28:53.512Z,36.90
2022-08-25T18:31:21.518Z,37.30
2022-08-25T18:33:50.871Z,38.70
2022-08-25T18:36:22.618Z,40.30
2022-08-25T18:39:10.775Z,41.90
2022-08-25T18:41:45.189Z,43.40
2022-08-25T18:44:13.062Z,44.80
2022-08-25T18:46:45.550Z,45.90
2022-08-25T18:49:15.795Z,46.70
2022-08-25T18:51:45.129Z,47.40
2022-08-25T18:54:22.843Z,48.60
2022-08-25T18:56:53.496Z,49.10
2022-08-25T18:59:23.678Z,50.20
2022-08-25T19:01:53.975Z,50.80
2022-08-25T19:04:28.358Z,51.40
2022-08-25T19:07:00.962Z,52.10
2022-08-25T19:09:29.693Z,52.50
2022-08-25T19:11:59.047Z,53.20
2022-08-25T19:14:27.156Z,54.10
2022-08-25T19:16:57.818Z,54.50
2022-08-25T19:19:25.971Z,55.00
2022-08-25T19:21:53.784Z,55.60
2022-08-25T19:24:21.657Z,56.70
2022-08-25T19:26:53.789Z,57.20
2022-08-25T19:29:23.174Z,57.80
2022-08-25T19:31:51.328Z,58.50
2022-08-25T19:34:28.306Z,59.00
2022-08-25T19:37:01.216Z,59.30
2022-08-25T19:39:30.266Z,59.40
2022-08-25T19:41:58.482Z,60.00
2022-08-25T19:44:28.203Z,60.30
2022-08-25T19:46:57.165Z,60.70
2022-08-25T19:49:31.487Z,61.10
2022-08-25T19:52:01.112Z,61.60
2022-08-25T19:54:33.376Z,61.90
2022-08-25T19:57:02.733Z,62.40
2022-08-25T19:59:42.607Z,62.90
2022-08-25T20:02:15.374Z,63.50
2022-08-25T20:04:49.768Z,63.80
2022-08-25T20:07:21.208Z,64.20
2022-08-25T20:09:49.399Z,64.70
2022-08-25T20:12:18.301Z,64.80
2022-08-25T20:14:47.187Z,65.10
2022-08-25T20:17:23.766Z,65.40
2022-08-25T20:19:59.303Z,65.80
2022-08-25T20:22:30.780Z,66.40
2022-08-25T20:25:07.610Z,66.60
2022-08-25T20:27:51.149Z,66.90
2022-08-25T20:30:25.252Z,67.10
2022-08-25T20:32:55.718Z,67.30
2022-08-25T20:35:26.834Z,67.40
2022-08-25T20:37:58.176Z,67.50
2022-08-25T20:40:29.962Z,67.60
2022-08-25T20:43:03.320Z,67.70
2022-08-25T20:45:31.616Z,68.00
2022-08-25T20:47:59.611Z,68.00
2022-08-25T20:50:28.597Z,68.20
2022-08-25T20:52:58.322Z,68.40
2022-08-25T20:55:27.817Z,68.60
2022-08-25T20:57:56.085Z,68.90
2022-08-25T21:00:24.913Z,68.70
2022-08-25T21:02:53.487Z,69.00
2022-08-25T21:05:21.712Z,69.30
2022-08-25T21:07:49.360Z,69.60
2022-08-25T21:10:17.299Z,69.90
2022-08-25T21:12:45.318Z,70.00
2022-08-25T21:15:13.824Z,70.20
2022-08-25T21:17:50.662Z,70.30
2022-08-25T21:20:18.642Z,70.50
2022-08-25T21:22:46.197Z,70.40
2022-08-25T21:25:14.553Z,70.50
2022-08-25T21:27:43.346Z,70.60
2022-08-25T21:30:11.515Z,70.60
2022-08-25T21:32:39.005Z,70.40
2022-08-25T21:35:07.940Z,70.40
2022-08-25T21:37:36.001Z,70.40
2022-08-25T21:40:06.999Z,70.50
2022-08-25T21:42:36.814Z,70.50
2022-08-25T21:45:04.997Z,70.50
2022-08-25T21:47:42.543Z,70.60
2022-08-25T21:50:11.993Z,70.60
2022-08-25T21:52:43.528Z,70.70
2022-08-25T21:55:15.833Z,70.80
2022-08-25T21:57:44.309Z,70.90
2022-08-25T22:00:14.834Z,71.10
2022-08-25T22:02:46.677Z,71.20
2022-08-25T22:05:15.454Z,71.40
2022-08-25T22:07:44.347Z,71.40
2022-08-25T22:10:16.695Z,71.60
2022-08-25T22:12:47.208Z,71.80
2022-08-25T22:15:17.928Z,72.10
2022-08-25T22:17:48.091Z,72.30
2022-08-25T22:20:17.919Z,72.60
2022-08-25T22:22:45.760Z,72.90
2022-08-25T22:25:14.595Z,73.10
2022-08-25T22:27:42.571Z,73.40
2022-08-25T22:30:11.759Z,73.60
2022-08-25T22:32:39.407Z,73.60
2022-08-25T22:35:08.312Z,73.80
2022-08-25T22:37:37.436Z,74.00
2022-08-25T22:40:05.985Z,74.30
2022-08-25T22:42:33.889Z,74.40
2022-08-25T22:45:01.668Z,74.60
2022-08-25T22:47:29.269Z,74.80
2022-08-25T22:49:59.092Z,75.00
2022-08-25T22:52:33.240Z,75.20
2022-08-25T22:55:02.876Z,75.40
2022-08-25T22:57:30.910Z,75.60
2022-08-25T22:59:59.353Z,75.50
2022-08-25T23:02:30.332Z,75.60
2022-08-25T23:05:00.808Z,75.90
2022-08-25T23:07:29.026Z,76.10
2022-08-25T23:09:59.867Z,76.30
2022-08-25T23:12:27.586Z,76.60
2022-08-25T23:14:55.873Z,76.80
2022-08-25T23:17:23.546Z,77.00
2022-08-25T23:19:51.398Z,77.10
2022-08-25T23:22:19.852Z,77.30
2022-08-25T23:24:52.066Z,77.50
2022-08-25T23:27:22.144Z,77.70
2022-08-25T23:29:50.265Z,77.90
2022-08-25T23:32:18.728Z,78.00
2022-08-25T23:34:47.182Z,78.30
2022-08-25T23:37:16.259Z,78.40
2022-08-25T23:39:49.946Z,78.70
2022-08-25T23:42:19.950Z,78.80
2022-08-25T23:44:48.767Z,79.00
2022-08-25T23:47:16.792Z,79.10
2022-08-25T23:49:45.125Z,79.20
2022-08-25T23:52:12.698Z,79.30
2022-08-25T23:54:40.332Z,79.50
2022-08-25T23:57:08.834Z,79.60
2022-08-25T23:59:37.841Z,79.70
